Time;durP1;ratioP1;P1;durP2;ratioP2;P2;SDS_P1;SDS_P2;PMS_P1;PMS_P2;Temp;Humidity;BMP_temperature;BMP_pressure;BME280_temperature;BME280_humidity;BME280_pressure;Samples;Min_cycle;Max_cycle;Signal;HPM_P1;HPM_P2
2021/08/30 00:01:15;;;;;;;4.65;3.38;;;;;;;12.31;91.09;95591.22;6215269;23;20066;-90
2021/08/30 00:03:41;;;;;;;4.05;3.05;;;;;;;12.38;90.26;95592.72;6215217;23;20057;-90
2021/08/30 00:06:06;;;;;;;3.75;3.35;;;;;;;12.27;92.42;95579.81;6215796;23;20043;-91
2021/08/30 00:08:59;;;;;;;5.05;3.22;;;;;;;12.45;91.38;95614.03;6216752;23;20074;-90
2021/08/30 00:11:25;;;;;;;5.05;3.47;;;;;;;12.46;91.97;95619.00;6215604;23;20012;-90
2021/08/30 00:13:50;;;;;;;4.10;3.10;;;;;;;12.19;92.67;95582.22;6215982;23;20008;-90
2021/08/30 00:16:16;;;;;;;4.00;3.00;;;;;;;12.24;93.33;95597.09;6215459;23;20008;-91
2021/08/30 00:18:44;;;;;;;5.78;3.30;;;;;;;12.35;93.51;95616.22;6215472;23;20035;-90
2021/08/30 00:21:09;;;;;;;4.10;3.50;;;;;;;12.25;94.42;95590.41;6215396;23;20015;-90
2021/08/30 00:23:35;;;;;;;3.88;3.13;;;;;;;12.15;94.21;95594.59;6215470;23;20016;-90
2021/08/30 00:26:04;;;;;;;3.70;3.30;;;;;;;12.27;94.06;95602.31;6215440;23;20429;-90
2021/08/30 00:28:30;;;;;;;5.05;3.30;;;;;;;12.22;94.78;95594.88;6215129;23;20017;-91
2021/08/30 00:30:56;;;;;;;5.28;2.90;;;;;;;12.23;95.41;95601.81;6214772;23;20004;-91
2021/08/30 00:33:21;;;;;;;5.03;3.20;;;;;;;12.06;93.63;95584.63;6214532;23;20083;-92
2021/08/30 00:35:47;;;;;;;3.58;3.28;;;;;;;12.16;95.09;95591.38;6214523;23;20005;-91
2021/08/30 00:38:13;;;;;;;3.92;3.50;;;;;;;12.15;94.25;95587.16;6214827;23;20020;-91
2021/08/30 00:40:39;;;;;;;4.03;3.40;;;;;;;12.26;94.06;95605.53;6215519;23;20021;-93
2021/08/30 00:43:05;;;;;;;3.85;3.22;;;;;;;12.16;94.51;95596.81;6215812;23;20004;-92
2021/08/30 00:45:32;;;;;;;5.47;3.33;;;;;;;12.12;95.33;95604.47;6215285;23;20084;-91
2021/08/30 00:47:58;;;;;;;4.05;3.58;;;;;;;12.17;96.13;95603.00;6215308;23;20032;-91
2021/08/30 00:50:23;;;;;;;5.75;3.42;;;;;;;12.20;96.48;95607.50;6215374;23;20008;-91
2021/08/30 00:52:51;;;;;;;3.88;3.47;;;;;;;12.18;95.80;95599.03;6215466;23;20008;-91
2021/08/30 00:55:17;;;;;;;4.22;3.33;;;;;;;12.10;95.12;95603.47;6215452;23;20015;-92
2021/08/30 00:57:43;;;;;;;4.95;3.72;;;;;;;12.09;97.15;95591.84;6215366;23;20005;-92
2021/08/30 01:00:10;;;;;;;7.60;3.75;;;;;;;12.16;96.56;95604.97;6215065;23;20008;-91
2021/08/30 01:02:36;;;;;;;3.90;3.60;;;;;;;12.23;98.19;95618.13;6215410;23;20009;-91
2021/08/30 01:05:03;;;;;;;3.33;3.03;;;;;;;12.09;96.19;95597.28;6215360;23;20008;-92
2021/08/30 01:08:10;;;;;;;4.78;3.33;;;;;;;12.03;97.84;95601.91;6215587;23;20012;-91
2021/08/30 01:11:02;;;;;;;4.75;3.47;;;;;;;12.19;96.79;95609.44;6215337;23;20512;-91
2021/08/30 01:13:37;;;;;;;3.83;3.20;;;;;;;12.10;98.29;95600.75;6215039;23;20008;-91
2021/08/30 01:16:10;;;;;;;4.75;3.78;;;;;;;12.23;98.09;95614.66;6216788;23;20009;-91
2021/08/30 01:18:40;;;;;;;5.03;3.95;;;;;;;12.20;97.66;95610.22;6217128;23;20078;-91
2021/08/30 01:21:27;;;;;;;4.90;3.70;;;;;;;12.17;98.52;95613.88;6215477;23;20345;-91
2021/08/30 01:23:57;;;;;;;5.20;3.80;;;;;;;12.14;99.05;95623.75;6217133;23;20004;-91
2021/08/30 01:26:27;;;;;;;;;;;;;;;12.17;98.58;95611.91;6217523;23;20023;-90
2021/08/30 01:29:24;;;;;;;4.22;3.75;;;;;;;12.17;98.68;95611.91;6216595;23;19969;-90
2021/08/30 01:31:55;;;;;;;4.50;3.75;;;;;;;12.11;98.48;95602.22;6217159;23;20004;-92
2021/08/30 01:34:23;;;;;;;6.18;4.22;;;;;;;11.98;98.14;95599.91;6216917;23;20095;-91
2021/08/30 01:36:50;;;;;;;4.15;3.75;;;;;;;11.92;98.91;95582.78;6216880;23;20012;-91
2021/08/30 01:39:17;;;;;;;4.43;3.47;;;;;;;11.97;97.03;95599.16;6218289;23;20008;-91
2021/08/30 01:41:43;;;;;;;5.65;3.60;;;;;;;11.97;96.92;95606.56;6216717;23;20016;-90
2021/08/30 01:44:10;;;;;;;4.88;3.40;;;;;;;11.86;97.34;95571.13;6216943;23;20005;-92
2021/08/30 01:46:38;;;;;;;4.65;3.65;;;;;;;11.81;98.57;95567.13;6216720;23;20008;-90
2021/08/30 01:49:08;;;;;;;4.47;4.00;;;;;;;12.00;98.93;95597.47;6216783;23;20009;-90
2021/08/30 01:51:34;;;;;;;6.30;4.10;;;;;;;12.01;98.81;95596.22;6216943;23;20038;-90
2021/08/30 01:54:00;;;;;;;6.20;3.88;;;;;;;12.18;98.18;95610.69;6217983;23;20079;-90
2021/08/30 01:56:28;;;;;;;5.10;4.22;;;;;;;11.99;97.51;95583.09;6216785;23;20383;-90
2021/08/30 02:01:39;;;;;;;4.45;3.50;;;;;;;12.16;97.93;95612.41;6217975;23;20066;-91
2021/08/30 02:04:05;;;;;;;4.00;3.20;;;;;;;11.91;96.41;95587.50;6216773;23;20448;-91
2021/08/30 02:06:32;;;;;;;3.50;3.15;;;;;;;11.94;97.18;95586.53;6216714;23;20011;-90
2021/08/30 02:08:59;;;;;;;4.63;3.53;;;;;;;11.94;98.80;95585.78;6216637;23;20003;-91
2021/08/30 02:11:29;;;;;;;4.45;3.50;;;;;;;11.89;98.32;95587.25;6216594;23;20361;-92
2021/08/30 02:13:57;;;;;;;4.70;3.28;;;;;;;11.86;98.16;95590.91;6216592;23;20032;-92
2021/08/30 02:16:22;;;;;;;4.32;3.25;;;;;;;11.85;99.63;95589.44;6216639;23;20012;-91
2021/08/30 02:18:56;;;;;;;3.92;2.88;;;;;;;12.01;97.47;95616.00;6216663;23;20345;-92
2021/08/30 02:21:37;;;;;;;3.92;3.20;;;;;;;12.04;97.62;95606.16;6216514;23;20028;-92
2021/08/30 02:24:08;;;;;;;3.15;2.83;;;;;;;12.03;97.57;95604.63;6216679;23;20005;-92
2021/08/30 02:26:55;;;;;;;3.50;3.20;;;;;;;12.06;99.72;95601.69;6216217;23;20005;-91
2021/08/30 02:29:28;;;;;;;3.45;3.00;;;;;;;11.89;97.70;95584.53;6216234;23;20086;-91
2021/08/30 02:31:56;;;;;;;3.70;3.30;;;;;;;12.10;98.02;95601.50;6216386;23;20326;-91
2021/08/30 02:34:24;;;;;;;3.40;3.10;;;;;;;11.91;99.52;95582.06;6216255;23;20008;-91
2021/08/30 02:36:51;;;;;;;3.28;2.97;;;;;;;11.84;98.96;95579.78;6216869;23;20455;-91
2021/08/30 02:39:18;;;;;;;3.33;3.00;;;;;;;11.87;98.59;95575.34;6216423;23;20024;-91
2021/08/30 02:41:45;;;;;;;3.10;2.80;;;;;;;11.94;95.37;95583.06;6216273;23;20015;-92
2021/08/30 02:44:12;;;;;;;4.07;3.17;;;;;;;11.75;98.83;95583.41;6216316;23;20012;-91
2021/08/30 02:46:38;;;;;;;6.35;3.40;;;;;;;11.84;98.86;95579.78;6215864;23;20016;-92
2021/08/30 02:49:05;;;;;;;3.22;2.92;;;;;;;11.97;97.54;95607.31;6216368;23;20433;-91
2021/08/30 02:51:32;;;;;;;4.25;3.30;;;;;;;11.86;99.33;95587.47;6216212;23;20330;-90
2021/08/30 02:53:58;;;;;;;10.82;3.15;;;;;;;11.84;98.17;95576.31;6215931;23;20035;-91
2021/08/30 02:56:23;;;;;;;5.28;2.90;;;;;;;11.86;98.28;95590.19;6216091;23;20005;-90
2021/08/30 02:58:49;;;;;;;3.58;2.90;;;;;;;11.80;98.94;95574.53;6216257;23;20064;-91
2021/08/30 03:01:18;;;;;;;2.97;2.78;;;;;;;11.74;98.20;95570.28;6216551;23;20016;-91
2021/08/30 03:03:44;;;;;;;4.32;3.15;;;;;;;11.79;100.00;95586.66;6216099;23;20004;-91
2021/08/30 03:06:11;;;;;;;3.28;2.60;;;;;;;11.96;99.26;95614.00;6216134;23;20024;-92
2021/08/30 03:08:37;;;;;;;3.47;2.90;;;;;;;11.84;99.67;95587.22;6216278;23;20009;-92
2021/08/30 03:11:05;;;;;;;3.50;2.67;;;;;;;11.78;97.84;95587.88;6216064;23;19997;-92
2021/08/30 03:13:32;;;;;;;2.50;2.30;;;;;;;11.80;95.75;95588.13;6215931;23;20008;-92
2021/08/30 03:15:57;;;;;;;7.65;2.58;;;;;;;11.79;98.57;95594.06;6216136;23;20504;-92
2021/08/30 03:18:24;;;;;;;3.00;2.70;;;;;;;11.96;99.86;95624.13;6215923;23;20059;-92
2021/08/30 03:20:52;;;;;;;3.83;2.53;;;;;;;11.79;100.00;95599.50;6215841;23;20325;-92
2021/08/30 03:23:19;;;;;;;3.40;2.70;;;;;;;11.80;98.04;95601.00;6216165;23;20008;-92
2021/08/30 03:25:46;;;;;;;4.45;2.90;;;;;;;11.90;99.52;95613.22;6215992;23;20010;-92
2021/08/30 03:28:13;;;;;;;4.45;3.08;;;;;;;11.71;99.26;95588.31;6215880;23;20020;-93
2021/08/30 03:30:39;;;;;;;4.65;3.10;;;;;;;11.78;99.17;95587.13;6215859;23;20005;-92
2021/08/30 03:33:06;;;;;;;3.90;3.50;;;;;;;11.76;100.00;95595.03;6215954;23;20015;-92
2021/08/30 03:35:33;;;;;;;3.55;3.25;;;;;;;11.73;100.00;95585.88;6215901;23;20035;-92
2021/08/30 03:38:00;;;;;;;4.68;3.58;;;;;;;11.71;100.00;95596.47;6215546;23;20115;-91
2021/08/30 03:40:27;;;;;;;4.00;3.17;;;;;;;11.79;100.00;95596.78;6215698;23;20093;-91
2021/08/30 03:42:54;;;;;;;4.75;3.08;;;;;;;11.80;100.00;95609.16;6215832;23;20004;-91
2021/08/30 03:45:20;;;;;;;5.15;2.90;;;;;;;11.77;100.00;95607.38;6215814;23;20001;-92
2021/08/30 03:51:09;;;;;;;5.53;3.30;;;;;;;11.78;100.00;95622.50;6217077;23;20381;-92
2021/08/30 03:53:36;;;;;;;5.43;2.90;;;;;;;11.73;98.48;95615.78;6215602;23;20004;-92
2021/08/30 03:56:04;;;;;;;4.25;2.80;;;;;;;11.61;99.42;95608.00;6215606;23;20004;-90
2021/08/30 03:58:31;;;;;;;4.53;2.90;;;;;;;11.74;99.97;95628.16;6215398;23;20012;-89
2021/08/30 04:01:03;;;;;;;3.10;2.75;;;;;;;11.71;97.50;95626.38;6215496;23;20333;-92
2021/08/30 04:03:30;;;;;;;3.10;2.80;;;;;;;11.61;97.23;95618.88;6215621;23;20008;-92
2021/08/30 04:05:57;;;;;;;3.33;2.80;;;;;;;11.62;99.93;95625.84;6217147;23;20051;-91
2021/08/30 04:08:23;;;;;;;2.97;2.63;;;;;;;11.59;98.52;95624.81;6215680;23;20053;-91
2021/08/30 04:10:49;;;;;;;4.60;3.05;;;;;;;11.50;100.00;95631.19;6215479;23;20392;-91
2021/08/30 04:13:14;;;;;;;2.33;2.10;;;;;;;11.51;97.81;95624.50;6215735;23;20036;-91
2021/08/30 04:15:40;;;;;;;3.60;2.88;;;;;;;11.50;98.80;95633.91;6216820;23;20005;-92
2021/08/30 04:18:05;;;;;;;3.33;2.15;;;;;;;11.53;97.83;95643.78;6215577;23;20001;-91
2021/08/30 04:20:31;;;;;;;6.20;2.92;;;;;;;11.63;98.87;95651.78;6215393;23;20151;-91
2021/08/30 04:22:57;;;;;;;5.90;3.10;;;;;;;11.58;100.00;95639.63;6215584;23;20012;-92
2021/08/30 04:25:22;;;;;;;3.55;2.20;;;;;;;11.60;98.00;95655.47;6215624;23;20400;-91
2021/08/30 04:27:48;;;;;;;7.05;2.78;;;;;;;11.63;100.00;95654.50;6215207;23;20021;-91
2021/08/30 04:30:14;;;;;;;3.88;2.60;;;;;;;11.58;99.57;95653.22;6215325;23;20027;-91
2021/08/30 04:32:40;;;;;;;5.47;2.80;;;;;;;11.43;99.87;95642.47;6215638;23;20005;-90
2021/08/30 04:35:07;;;;;;;3.80;2.63;;;;;;;11.49;100.00;95650.66;6215754;23;20036;-91
2021/08/30 04:37:33;;;;;;;3.65;2.30;;;;;;;11.42;97.43;95649.13;6216757;23;20042;-91
2021/08/30 04:39:58;;;;;;;3.97;2.53;;;;;;;11.45;100.00;95644.69;6215464;23;20012;-91
2021/08/30 04:42:24;;;;;;;4.18;2.90;;;;;;;11.48;100.00;95651.91;6215341;23;20083;-92
2021/08/30 04:44:50;;;;;;;5.25;2.45;;;;;;;11.45;99.89;95659.06;6215528;23;20004;-91
2021/08/30 04:47:16;;;;;;;3.00;2.28;;;;;;;11.44;99.22;95654.06;6215468;23;20032;-91
2021/08/30 04:49:42;;;;;;;1.92;1.55;;;;;;;11.47;95.57;95662.03;6216043;23;20104;-90
2021/08/30 04:52:07;;;;;;;2.85;2.25;;;;;;;11.42;98.71;95670.88;6217506;23;20025;-91
2021/08/30 04:54:33;;;;;;;3.33;1.92;;;;;;;11.31;96.60;95640.88;6217430;23;20008;-91
2021/08/30 04:56:59;;;;;;;3.35;2.08;;;;;;;11.33;99.48;95664.84;6218514;23;20072;-92
2021/08/30 04:59:24;;;;;;;2.30;1.98;;;;;;;11.34;96.83;95660.91;6217335;23;20009;-92
2021/08/30 05:01:50;;;;;;;4.10;2.25;;;;;;;11.49;97.85;95666.97;6217318;23;20009;-91
2021/08/30 05:04:15;;;;;;;2.17;1.98;;;;;;;11.34;98.92;95653.47;6217462;23;20007;-91
2021/08/30 05:06:41;;;;;;;3.08;2.25;;;;;;;11.38;99.17;95666.88;6217269;23;20091;-91
2021/08/30 05:09:06;;;;;;;2.28;1.85;;;;;;;11.31;98.80;95649.03;6217378;23;20004;-92
2021/08/30 05:11:35;;;;;;;2.80;1.90;;;;;;;11.33;99.30;95653.97;6217150;23;20426;-92
2021/08/30 05:14:01;;;;;;;4.95;1.90;;;;;;;11.32;98.63;95668.78;6217236;23;20100;-92
2021/08/30 05:16:26;;;;;;;3.47;1.70;;;;;;;11.32;97.33;95663.34;6220001;23;20028;-91
2021/08/30 05:18:52;;;;;;;3.90;2.25;;;;;;;11.30;99.98;95660.38;6217283;23;20418;-91
2021/08/30 05:21:17;;;;;;;2.42;1.77;;;;;;;11.36;98.14;95670.09;6216943;23;20015;-92
2021/08/30 05:23:43;;;;;;;2.17;1.83;;;;;;;11.30;99.35;95673.97;6217060;23;20005;-91
2021/08/30 05:26:08;;;;;;;3.67;1.63;;;;;;;11.21;96.33;95662.00;6217077;23;20010;-93
2021/08/30 05:28:34;;;;;;;2.10;1.58;;;;;;;11.20;97.00;95659.78;6216994;23;20024;-91
2021/08/30 05:31:00;;;;;;;3.67;1.50;;;;;;;11.20;96.78;95654.34;6217129;23;20001;-92
2021/08/30 05:33:26;;;;;;;2.30;1.65;;;;;;;11.20;97.49;95652.38;6217097;23;20059;-91
2021/08/30 05:35:52;;;;;;;2.42;1.60;;;;;;;11.20;98.36;95648.91;6217081;23;20117;-91
2021/08/30 05:38:17;;;;;;;2.00;1.70;;;;;;;11.04;98.41;95638.59;6216969;23;20012;-93
2021/08/30 05:40:43;;;;;;;2.10;1.50;;;;;;;11.00;96.69;95630.66;6216931;23;20012;-91
2021/08/30 05:43:08;;;;;;;2.55;1.40;;;;;;;11.21;96.78;95672.13;6216612;23;20043;-93
2021/08/30 05:45:34;;;;;;;3.00;1.58;;;;;;;11.08;98.97;95645.31;6216805;23;20032;-92
2021/08/30 05:48:00;;;;;;;3.15;1.98;;;;;;;11.12;98.51;95648.56;6217028;23;20008;-91
2021/08/30 05:50:26;;;;;;;3.35;2.17;;;;;;;11.10;99.12;95645.59;6216869;23;20014;-91
2021/08/30 05:52:51;;;;;;;2.78;2.10;;;;;;;11.11;99.95;95649.78;6216754;23;20087;-93
2021/08/30 05:55:17;;;;;;;2.42;1.90;;;;;;;11.25;98.88;95667.25;6216506;23;20039;-91
2021/08/30 05:57:43;;;;;;;2.60;1.83;;;;;;;11.15;99.08;95647.63;6216786;23;20333;-91
2021/08/30 06:00:10;;;;;;;2.75;1.63;;;;;;;11.16;99.12;95661.94;6216929;23;20094;-91
2021/08/30 06:02:36;;;;;;;1.70;1.50;;;;;;;11.05;98.72;95635.41;6215749;23;20012;-92
2021/08/30 06:05:02;;;;;;;2.83;1.90;;;;;;;11.14;99.45;95645.38;6216820;23;20009;-91
2021/08/30 06:07:28;;;;;;;3.47;1.55;;;;;;;11.20;100.00;95654.34;6216584;23;20008;-92
2021/08/30 06:09:54;;;;;;;2.88;1.65;;;;;;;11.16;98.60;95642.94;6216644;23;20319;-92
2021/08/30 06:12:19;;;;;;;1.83;1.38;;;;;;;11.20;95.98;95649.66;6216651;23;20066;-92
2021/08/30 06:14:45;;;;;;;1.38;1.20;;;;;;;11.30;97.14;95661.13;6216583;23;20066;-91
2021/08/30 06:17:11;;;;;;;1.58;1.30;;;;;;;10.99;97.08;95623.72;6216562;23;20050;-92
2021/08/30 06:19:36;;;;;;;2.38;1.40;;;;;;;11.15;98.22;95646.88;6216610;23;20011;-91
2021/08/30 06:22:02;;;;;;;2.58;1.58;;;;;;;11.25;98.18;95659.09;6216348;23;20009;-92
2021/08/30 06:24:28;;;;;;;1.42;1.30;;;;;;;11.27;99.11;95629.44;6216698;23;20031;-92
2021/08/30 06:26:53;;;;;;;5.38;1.50;;;;;;;11.24;97.79;95628.44;6216648;23;20008;-93
2021/08/30 06:29:19;;;;;;;2.50;1.80;;;;;;;11.26;96.92;95634.16;6216395;23;20021;-93
2021/08/30 06:31:44;;;;;;;6.05;2.08;;;;;;;11.75;100.00;95645.97;6216549;23;20005;-94
2021/08/30 06:34:10;;;;;;;2.40;1.80;;;;;;;11.53;96.80;95667.53;6216407;23;20373;-92
2021/08/30 06:36:36;;;;;;;3.25;1.63;;;;;;;11.74;98.61;95660.78;6216493;23;20001;-93
2021/08/30 06:39:02;;;;;;;3.33;1.80;;;;;;;11.58;98.20;95650.50;6216573;23;20425;-92
2021/08/30 06:41:28;;;;;;;1.98;1.50;;;;;;;11.67;99.04;95653.06;6216359;23;20055;-92
2021/08/30 06:43:54;;;;;;;2.30;1.40;;;;;;;11.59;98.98;95643.09;6216583;23;20477;-92
2021/08/30 06:46:20;;;;;;;3.38;1.75;;;;;;;11.64;100.00;95662.19;6216077;23;20009;-91
2021/08/30 06:48:45;;;;;;;3.78;1.80;;;;;;;11.56;100.00;95652.97;6216371;23;20000;-91
2021/08/30 06:51:11;;;;;;;2.58;1.40;;;;;;;11.30;94.96;95619.59;6216403;23;20311;-90
2021/08/30 06:53:38;;;;;;;2.17;1.60;;;;;;;11.40;95.56;95629.06;6216238;23;20392;-91
2021/08/30 06:56:04;;;;;;;1.60;1.50;;;;;;;11.43;95.23;95641.72;6216242;23;20001;-91
2021/08/30 06:58:30;;;;;;;2.30;1.98;;;;;;;11.48;97.46;95646.47;6216236;23;20422;-92
2021/08/30 07:00:55;;;;;;;2.97;2.30;;;;;;;11.38;96.55;95642.41;6215990;23;20004;-91
2021/08/30 07:03:21;;;;;;;3.25;2.00;;;;;;;11.43;96.12;95655.31;6215996;23;20004;-93
2021/08/30 07:05:46;;;;;;;2.95;1.85;;;;;;;11.33;96.54;95630.25;6216042;23;20036;-92
2021/08/30 07:08:12;;;;;;;2.10;1.73;;;;;;;11.40;96.27;95650.81;6215991;23;20008;-91
2021/08/30 07:10:38;;;;;;;2.17;1.80;;;;;;;11.44;96.76;95638.50;6215953;23;20008;-91
2021/08/30 07:13:03;;;;;;;2.00;1.80;;;;;;;11.53;100.00;95646.50;6216246;23;20078;-92
2021/08/30 07:15:29;;;;;;;2.33;1.88;;;;;;;11.48;95.57;95649.94;6215965;23;20004;-92
2021/08/30 07:17:54;;;;;;;2.58;1.90;;;;;;;11.49;95.02;95645.22;6216071;23;20484;-93
2021/08/30 07:20:20;;;;;;;2.20;1.80;;;;;;;11.36;96.22;95623.88;6215870;23;20058;-92
2021/08/30 07:22:46;;;;;;;2.75;2.08;;;;;;;11.62;97.00;95651.06;6215777;23;20008;-91
2021/08/30 07:25:11;;;;;;;4.15;1.90;;;;;;;11.75;95.09;95665.00;6215941;23;20493;-92
2021/08/30 07:27:37;;;;;;;2.63;1.60;;;;;;;11.71;96.88;95659.03;6215293;23;20008;-92
2021/08/30 07:30:04;;;;;;;2.63;1.77;;;;;;;11.72;94.63;95655.09;6215568;23;20337;-92
2021/08/30 07:32:29;;;;;;;2.60;1.90;;;;;;;11.73;94.15;95661.28;6216038;23;20019;-92
2021/08/30 07:34:55;;;;;;;2.92;1.90;;;;;;;11.62;95.15;95647.59;6215923;23;20004;-91
2021/08/30 07:37:21;;;;;;;5.60;2.30;;;;;;;11.69;98.19;95658.03;6215502;23;20417;-92
2021/08/30 07:39:46;;;;;;;2.30;1.67;;;;;;;11.58;93.39;95657.94;6216027;23;20004;-93
2021/08/30 07:42:12;;;;;;;2.67;1.55;;;;;;;11.64;94.83;95656.75;6216365;23;20456;-92
2021/08/30 07:44:37;;;;;;;1.90;1.60;;;;;;;11.63;93.76;95670.84;6216003;23;20055;-92
2021/08/30 07:47:03;;;;;;;2.10;1.90;;;;;;;11.58;95.73;95669.56;6215996;23;20039;-91
2021/08/30 07:49:29;;;;;;;2.38;1.80;;;;;;;11.60;96.01;95669.81;6216015;23;20031;-92
2021/08/30 07:51:54;;;;;;;3.95;1.80;;;;;;;11.60;94.96;95680.69;6217239;23;20072;-92
2021/08/30 07:54:20;;;;;;;1.83;1.65;;;;;;;11.48;94.69;95663.53;6215863;23;20008;-91
2021/08/30 07:56:46;;;;;;;2.17;1.98;;;;;;;11.61;94.50;95674.03;6215800;23;20016;-92
2021/08/30 07:59:12;;;;;;;3.03;1.88;;;;;;;11.52;96.72;95657.88;6215544;23;20008;-91
2021/08/30 08:01:37;;;;;;;2.80;2.15;;;;;;;11.55;95.28;95671.25;6215642;23;20336;-91
2021/08/30 08:04:03;;;;;;;3.22;2.35;;;;;;;11.51;94.17;95678.88;6215758;23;20031;-91
2021/08/30 08:06:29;;;;;;;2.90;2.60;;;;;;;11.67;95.13;95687.69;6215471;23;20008;-91
2021/08/30 08:08:54;;;;;;;2.90;2.60;;;;;;;11.48;95.86;95670.94;6215522;23;20016;-92
2021/08/30 08:11:20;;;;;;;3.35;2.50;;;;;;;11.72;97.26;95700.59;6215509;23;20001;-92
2021/08/30 08:13:46;;;;;;;4.30;2.88;;;;;;;11.54;96.32;95672.47;6217075;23;20337;-93
2021/08/30 08:16:11;;;;;;;2.97;2.45;;;;;;;11.55;95.51;95687.56;6216329;23;20005;-92
2021/08/30 08:18:37;;;;;;;3.00;2.70;;;;;;;11.75;95.87;95700.38;6216022;23;20087;-89
2021/08/30 08:21:04;;;;;;;3.78;3.17;;;;;;;11.62;98.30;95680.22;6215632;23;20380;-91
2021/08/30 08:23:33;;;;;;;4.05;3.08;;;;;;;11.55;95.74;95668.53;6218100;23;20000;-91
2021/08/30 08:25:58;;;;;;;3.50;3.00;;;;;;;11.69;94.75;95682.50;6216742;23;20072;-92
2021/08/30 08:28:24;;;;;;;3.40;3.05;;;;;;;11.65;95.73;95687.41;6216756;23;20020;-93
2021/08/30 08:30:50;;;;;;;5.57;3.80;;;;;;;11.74;99.26;95690.72;6219935;23;20007;-93
2021/08/30 08:33:16;;;;;;;3.75;3.10;;;;;;;11.80;98.70;95699.66;6222262;23;20005;-94
2021/08/30 08:35:42;;;;;;;3.55;3.03;;;;;;;11.62;98.62;95672.06;6218936;23;20005;-93
2021/08/30 08:38:12;;;;;;;2.80;2.50;;;;;;;11.87;99.31;95712.13;6219086;23;20087;-92
2021/08/30 08:40:37;;;;;;;4.60;2.20;;;;;;;11.76;95.36;95704.56;6222995;23;20011;-91
2021/08/30 08:43:11;;;;;;;3.45;2.00;;;;;;;11.77;93.47;95711.53;6218160;23;20000;-91
2021/08/30 08:45:37;;;;;;;2.30;1.95;;;;;;;11.60;95.30;95691.56;6220541;23;20005;-90
2021/08/30 08:51:24;;;;;;;2.95;1.80;;;;;;;11.70;95.73;95698.34;6218507;23;20011;-92
2021/08/30 08:53:50;;;;;;;1.55;1.42;;;;;;;11.60;94.75;95679.94;6215799;23;20008;-92
2021/08/30 08:56:24;;;;;;;1.80;1.58;;;;;;;11.68;96.89;95706.25;6215597;23;20001;-95
2021/08/30 08:58:49;;;;;;;1.50;1.40;;;;;;;11.58;93.87;95696.00;6215664;23;20001;-93
2021/08/30 09:01:15;;;;;;;1.95;1.63;;;;;;;11.70;97.33;95711.94;6216369;23;20005;-92
2021/08/30 09:03:49;;;;;;;2.70;1.83;;;;;;;11.87;97.57;95723.00;6215911;23;20433;-91
2021/08/30 09:06:34;;;;;;;2.47;1.98;;;;;;;11.84;100.00;95706.91;6215927;23;20007;-92
2021/08/30 09:09:04;;;;;;;3.22;2.00;;;;;;;11.67;96.03;95709.44;6216037;23;20013;-91
2021/08/30 09:11:43;;;;;;;6.60;2.20;;;;;;;11.95;99.52;95721.34;6215626;23;20004;-91
2021/08/30 09:14:17;;;;;;;3.15;2.00;;;;;;;12.07;99.94;95724.91;6215176;23;20005;-91
2021/08/30 09:16:44;;;;;;;2.80;2.20;;;;;;;12.10;98.24;95720.50;6214887;23;20000;-91
2021/08/30 09:19:12;;;;;;;4.28;2.50;;;;;;;12.17;98.80;95720.06;6214647;23;20027;-91
2021/08/30 09:21:50;;;;;;;3.97;2.92;;;;;;;11.98;97.79;95698.59;6215082;23;20007;-92
2021/08/30 09:24:18;;;;;;;2.88;2.47;;;;;;;11.97;99.34;95699.09;6215298;23;20012;-93
2021/08/30 09:26:56;;;;;;;5.03;2.40;;;;;;;11.93;94.64;95687.69;6215815;23;20004;-91
2021/08/30 09:29:27;;;;;;;3.53;2.80;;;;;;;12.22;96.96;95717.38;6215217;23;20020;-91
2021/08/30 09:31:59;;;;;;;6.13;3.05;;;;;;;12.36;98.38;95725.88;6216703;23;20418;-92
2021/08/30 09:34:33;;;;;;;4.38;2.53;;;;;;;12.17;92.59;95696.28;6217233;23;20011;-91
2021/08/30 09:36:59;;;;;;;1.98;1.70;;;;;;;12.35;91.48;95725.13;6217950;23;20008;-94
2021/08/30 09:39:26;;;;;;;2.67;1.92;;;;;;;12.31;93.13;95702.84;6218966;23;20337;-91
2021/08/30 09:41:52;;;;;;;1.83;1.33;;;;;;;12.36;92.93;95702.13;6216361;23;20008;-92
2021/08/30 09:44:25;;;;;;;1.58;1.38;;;;;;;12.48;94.57;95698.25;6216599;23;20039;-91
2021/08/30 09:46:52;;;;;;;2.25;1.40;;;;;;;12.44;92.76;95691.53;6217035;23;20015;-90
2021/08/30 09:49:21;;;;;;;2.17;1.40;;;;;;;12.28;90.14;95684.75;6217624;23;20019;-89
2021/08/30 09:51:49;;;;;;;1.80;1.50;;;;;;;12.58;90.72;95724.06;6217700;23;20004;-91
2021/08/30 09:54:18;;;;;;;1.33;1.20;;;;;;;12.43;88.55;95688.06;6223358;23;20004;-94
2021/08/30 09:56:45;;;;;;;1.90;1.67;;;;;;;12.52;93.31;95706.22;6219112;23;20087;-93
2021/08/30 09:59:12;;;;;;;2.20;1.55;;;;;;;12.58;93.72;95726.78;6217650;23;20083;-91
2021/08/30 10:01:39;;;;;;;1.60;1.30;;;;;;;12.58;89.83;95729.50;6216620;23;20088;-90
2021/08/30 10:04:06;;;;;;;1.70;1.60;;;;;;;12.48;94.60;95703.69;6220419;23;20368;-93
2021/08/30 10:06:35;;;;;;;1.63;1.52;;;;;;;12.41;92.33;95703.38;6219969;23;20023;-93
2021/08/30 10:09:02;;;;;;;2.72;1.92;;;;;;;12.70;92.76;95719.44;6217017;23;20005;-90
2021/08/30 10:11:28;;;;;;;2.17;1.98;;;;;;;12.52;95.89;95695.31;6216187;23;20008;-88
2021/08/30 10:13:54;;;;;;;2.70;1.65;;;;;;;12.49;92.05;95693.53;6216589;23;20484;-90
2021/08/30 10:16:21;;;;;;;1.88;1.60;;;;;;;12.63;92.12;95709.00;6216360;23;20011;-93
2021/08/30 10:18:50;;;;;;;2.90;1.77;;;;;;;12.70;92.34;95711.25;6216641;23;20092;-93
2021/08/30 10:21:17;;;;;;;3.58;1.63;;;;;;;12.73;92.62;95709.53;6216469;23;20070;-92
2021/08/30 10:23:45;;;;;;;2.00;1.73;;;;;;;12.83;93.39;95724.44;6216410;23;20036;-92
2021/08/30 10:26:12;;;;;;;2.17;1.90;;;;;;;12.81;94.50;95726.91;6216920;23;20043;-93
2021/08/30 10:28:47;;;;;;;2.22;1.65;;;;;;;12.87;89.63;95727.69;6216366;23;20012;-92
2021/08/30 10:31:47;;;;;;;2.63;1.65;;;;;;;12.81;92.19;95721.47;6216986;23;20004;-94
2021/08/30 10:34:25;;;;;;;1.85;1.50;;;;;;;12.63;91.76;95689.94;6216302;23;20457;-91
2021/08/30 10:36:52;;;;;;;2.08;1.88;;;;;;;12.85;94.72;95730.16;6215997;23;20011;-90
2021/08/30 10:39:17;;;;;;;1.77;1.67;;;;;;;12.77;93.43;95710.78;6216247;23;20349;-94
2021/08/30 10:41:45;;;;;;;2.78;1.75;;;;;;;12.91;94.69;95736.41;6216652;23;20087;-93
2021/08/30 10:44:21;;;;;;;2.85;2.00;;;;;;;12.75;91.67;95698.91;6216723;23;20004;-93
2021/08/30 10:46:54;;;;;;;2.03;1.70;;;;;;;13.03;91.11;95734.47;6220630;23;20007;-93
2021/08/30 10:49:26;;;;;;;2.30;1.90;;;;;;;13.08;93.80;95734.50;6216972;23;20007;-91
2021/08/30 10:51:51;;;;;;;2.70;2.50;;;;;;;13.07;92.76;95716.66;6216787;23;20367;-92
2021/08/30 10:54:19;;;;;;;3.38;2.08;;;;;;;13.22;89.47;95732.84;6216280;23;20040;-93
2021/08/30 10:57:15;;;;;;;2.17;1.90;;;;;;;13.30;90.65;95742.03;6216042;23;20058;-92
2021/08/30 10:59:43;;;;;;;2.30;1.88;;;;;;;13.25;88.76;95722.94;6184479;23;20005;-93
2021/08/30 11:02:09;;;;;;;2.28;1.48;;;;;;;13.39;88.11;95740.34;6215868;23;20011;-92
2021/08/30 11:04:37;;;;;;;2.30;1.60;;;;;;;13.36;88.49;95737.34;6215993;23;20001;-92
2021/08/30 11:07:05;;;;;;;2.20;1.50;;;;;;;13.31;91.11;95726.44;6216021;23;20503;-91
2021/08/30 11:09:31;;;;;;;1.40;1.27;;;;;;;13.41;92.09;95746.06;6217346;23;20015;-91
2021/08/30 11:12:13;;;;;;;2.00;1.60;;;;;;;13.46;92.33;95739.88;6215375;23;20001;-92
2021/08/30 11:14:39;;;;;;;1.50;1.30;;;;;;;13.60;91.64;95733.47;6217228;23;20559;-92
2021/08/30 11:17:05;;;;;;;2.90;1.38;;;;;;;13.51;86.54;95723.53;6217070;23;20008;-92
2021/08/30 11:19:31;;;;;;;3.92;1.50;;;;;;;13.47;88.76;95716.81;6215763;23;20398;-91
2021/08/30 11:21:59;;;;;;;2.65;1.85;;;;;;;13.70;86.56;95745.66;6216028;23;20015;-92
2021/08/30 11:24:41;;;;;;;2.03;1.50;;;;;;;13.80;86.44;95754.38;6215939;23;20008;-92
2021/08/30 11:27:14;;;;;;;1.92;1.42;;;;;;;13.75;85.51;95744.19;6216238;23;20027;-91
2021/08/30 11:29:47;;;;;;;2.88;1.40;;;;;;;13.67;88.59;95715.88;6215667;23;20024;-92
2021/08/30 11:32:14;;;;;;;1.40;1.27;;;;;;;13.84;89.14;95754.84;6217040;23;20051;-92
2021/08/30 11:34:40;;;;;;;1.40;1.30;;;;;;;13.66;89.22;95717.13;6217024;23;20008;-93
2021/08/30 11:37:08;;;;;;;1.95;1.45;;;;;;;13.85;86.87;95740.72;6216165;23;20115;-92
2021/08/30 11:39:37;;;;;;;1.50;1.40;;;;;;;13.76;88.62;95742.94;6218034;23;20011;-92
2021/08/30 11:42:07;;;;;;;2.08;1.50;;;;;;;13.85;88.21;95745.44;6215798;23;20012;-93
2021/08/30 11:44:34;;;;;;;1.77;1.35;;;;;;;14.02;88.81;95761.84;6215229;23;20004;-91
2021/08/30 11:47:03;;;;;;;1.40;1.20;;;;;;;13.93;85.60;95757.34;6215032;23;20489;-91